Time;durP1;ratioP1;P1;durP2;ratioP2;P2;SDS_P1;SDS_P2;PMS_P1;PMS_P2;Temp;Humidity;BMP_temperature;BMP_pressure;BME280_temperature;BME280_humidity;BME280_pressure;Samples;Min_cycle;Max_cycle;Signal;HPM_P1;HPM_P2
2022/03/25 00:00:41;;;;;;;;;;;6.80;68.70;;;;;;5062245;28;19995;-69
2022/03/25 00:03:06;;;;;;;;;;;6.70;68.90;;;;;;5062563;28;19916;-69
2022/03/25 00:05:32;;;;;;;;;;;6.70;69.30;;;;;;5062261;28;19919;-69
2022/03/25 00:07:58;;;;;;;;;;;6.70;70.00;;;;;;5044693;28;20200;-69
2022/03/25 00:10:24;;;;;;;;;;;6.60;70.20;;;;;;5044685;28;19951;-69
2022/03/25 00:12:49;;;;;;;;;;;6.50;70.70;;;;;;5062133;28;19981;-69
2022/03/25 00:15:16;;;;;;;;;;;6.50;70.40;;;;;;5062411;28;19915;-68
2022/03/25 00:17:41;;;;;;;;;;;6.50;70.50;;;;;;5062301;28;19952;-69
2022/03/25 00:20:07;;;;;;;;;;;6.50;70.80;;;;;;5044404;28;20115;-69
2022/03/25 00:22:33;;;;;;;;;;;6.50;70.90;;;;;;5062128;28;19908;-69
2022/03/25 00:24:59;;;;;;;;;;;6.40;71.30;;;;;;5062073;28;19916;-69
2022/03/25 00:27:24;;;;;;;;;;;6.40;71.40;;;;;;5062325;28;19913;-70
2022/03/25 00:29:50;;;;;;;;;;;6.30;71.80;;;;;;5062207;28;19916;-69
2022/03/25 00:32:16;;;;;;;;;;;6.30;71.90;;;;;;5061997;28;20326;-69
2022/03/25 00:34:43;;;;;;;;;;;6.30;71.80;;;;;;5061889;28;19920;-68
2022/03/25 00:37:10;;;;;;;;;;;6.20;72.10;;;;;;5062040;28;20154;-69
2022/03/25 00:39:36;;;;;;;;;;;6.20;72.20;;;;;;5061518;28;20142;-69
2022/03/25 00:42:03;;;;;;;;;;;6.20;72.50;;;;;;5061756;28;19944;-68
2022/03/25 00:44:29;;;;;;;;;;;6.10;72.80;;;;;;5044572;28;19908;-69
2022/03/25 00:46:55;;;;;;;;;;;6.00;72.90;;;;;;5044173;28;20147;-69
2022/03/25 00:49:20;;;;;;;;;;;6.10;73.30;;;;;;5062033;28;19916;-69
2022/03/25 00:51:46;;;;;;;;;;;6.10;73.10;;;;;;5060664;28;19989;-68
2022/03/25 00:54:13;;;;;;;;;;;6.10;73.10;;;;;;5061945;28;19909;-69
2022/03/25 00:56:39;;;;;;;;;;;6.10;73.20;;;;;;5062046;28;19981;-68
2022/03/25 00:59:04;;;;;;;;;;;6.10;73.20;;;;;;5061854;28;19912;-69
2022/03/25 01:01:30;;;;;;;;;;;6.00;73.60;;;;;;5061584;28;19976;-70
2022/03/25 01:03:56;;;;;;;;;;;5.90;74.10;;;;;;5061932;28;20230;-70
2022/03/25 01:06:22;;;;;;;;;;;5.90;74.30;;;;;;5063772;28;20231;-69
2022/03/25 01:08:47;;;;;;;;;;;5.90;74.40;;;;;;5065508;28;19916;-69
2022/03/25 01:11:13;;;;;;;;;;;5.80;74.40;;;;;;5065224;28;20254;-68
2022/03/25 01:13:39;;;;;;;;;;;5.70;75.00;;;;;;5047732;28;19955;-69
2022/03/25 01:16:05;;;;;;;;;;;5.70;75.00;;;;;;5047654;28;20204;-69
2022/03/25 01:18:31;;;;;;;;;;;5.70;75.10;;;;;;5065155;28;20171;-68
2022/03/25 01:20:57;;;;;;;;;;;5.60;75.40;;;;;;5064670;28;19924;-69
2022/03/25 01:23:24;;;;;;;;;;;5.50;76.20;;;;;;5065051;28;19924;-68
2022/03/25 01:25:49;;;;;;;;;;;5.50;76.20;;;;;;5065061;28;19980;-68
2022/03/25 01:28:15;;;;;;;;;;;5.40;76.80;;;;;;5064971;28;20215;-68
2022/03/25 01:30:42;;;;;;;;;;;5.40;76.90;;;;;;5047187;28;19916;-68
2022/03/25 01:33:09;;;;;;;;;;;5.50;79.00;;;;;;5064931;28;19989;-68
2022/03/25 01:35:35;;;;;;;;;;;5.50;79.50;;;;;;5064901;28;19915;-69
2022/03/25 01:38:01;;;;;;;;;;;5.50;79.30;;;;;;5064689;28;19917;-69
2022/03/25 01:40:27;;;;;;;;;;;5.50;80.10;;;;;;5064820;28;19954;-69
2022/03/25 01:42:53;;;;;;;;;;;5.40;81.00;;;;;;5064573;28;19909;-69
2022/03/25 01:45:32;;;;;;;;;;;5.40;81.00;;;;;;5064651;28;19952;-69
2022/03/25 01:47:59;;;;;;;;;;;5.20;81.70;;;;;;5064750;28;19909;-68
2022/03/25 01:50:25;;;;;;;;;;;5.20;80.60;;;;;;5063812;28;19909;-69
2022/03/25 01:52:51;;;;;;;;;;;5.00;80.40;;;;;;5064657;28;19916;-69
2022/03/25 01:55:20;;;;;;;;;;;4.80;80.60;;;;;;5046956;28;20128;-69
2022/03/25 01:57:45;;;;;;;;;;;4.80;81.10;;;;;;5064781;28;19909;-69
2022/03/25 02:00:14;;;;;;;;;;;4.80;81.30;;;;;;5046637;28;19917;-70
2022/03/25 02:02:39;;;;;;;;;;;4.70;81.20;;;;;;5064193;28;20108;-69
2022/03/25 02:05:05;;;;;;;;;;;4.70;81.20;;;;;;5064199;28;19916;-69
2022/03/25 02:07:31;;;;;;;;;;;4.60;81.40;;;;;;5064417;28;19916;-69
2022/03/25 02:09:58;;;;;;;;;;;4.50;81.70;;;;;;5064419;28;19917;-70
2022/03/25 02:12:24;;;;;;;;;;;4.40;82.20;;;;;;5046598;28;19976;-71
2022/03/25 02:14:50;;;;;;;;;;;4.40;82.90;;;;;;5046570;28;20092;-71
2022/03/25 02:17:16;;;;;;;;;;;4.40;83.20;;;;;;5063313;28;19915;-71
2022/03/25 02:19:42;;;;;;;;;;;4.30;83.40;;;;;;5064149;28;19920;-70
2022/03/25 02:22:08;;;;;;;;;;;4.40;83.70;;;;;;5063552;28;19946;-71
2022/03/25 02:24:34;;;;;;;;;;;4.30;83.10;;;;;;5064113;28;19909;-70
2022/03/25 02:27:00;;;;;;;;;;;4.30;83.20;;;;;;5063795;28;20009;-70
2022/03/25 02:29:25;;;;;;;;;;;4.40;82.90;;;;;;5046245;28;19915;-70
2022/03/25 02:31:51;;;;;;;;;;;4.30;83.00;;;;;;5063662;28;19925;-70
2022/03/25 02:34:17;;;;;;;;;;;4.20;83.10;;;;;;5063801;28;20223;-70
2022/03/25 02:39:12;;;;;;;;;;;4.20;83.10;;;;;;5056608;28;19928;-67
2022/03/25 02:41:37;;;;;;;;;;;4.20;83.00;;;;;;5063202;28;19927;-68
2022/03/25 02:44:03;;;;;;;;;;;4.30;82.70;;;;;;5063409;28;19909;-68
2022/03/25 02:46:29;;;;;;;;;;;4.20;82.90;;;;;;5063421;28;19928;-69
2022/03/25 02:48:56;;;;;;;;;;;4.10;83.00;;;;;;5063335;28;20112;-67
2022/03/25 02:51:21;;;;;;;;;;;4.10;82.90;;;;;;5062549;28;20111;-68
2022/03/25 02:53:47;;;;;;;;;;;4.00;83.60;;;;;;5060133;28;19916;-65
2022/03/25 02:56:13;;;;;;;;;;;3.90;84.00;;;;;;5063096;28;19917;-65
2022/03/25 02:58:38;;;;;;;;;;;3.80;84.30;;;;;;5063268;28;20231;-65
2022/03/25 03:01:06;;;;;;;;;;;3.80;85.30;;;;;;5062937;28;19915;-65
2022/03/25 03:03:33;;;;;;;;;;;3.80;85.30;;;;;;5063208;28;20203;-66
2022/03/25 03:05:59;;;;;;;;;;;3.90;86.10;;;;;;5062953;28;20108;-64
2022/03/25 03:08:25;;;;;;;;;;;3.80;86.80;;;;;;5062832;28;19920;-65
2022/03/25 03:10:50;;;;;;;;;;;3.80;87.70;;;;;;5062793;28;19972;-65
2022/03/25 03:13:16;;;;;;;;;;;3.80;87.60;;;;;;5063061;28;20204;-64
2022/03/25 03:15:42;;;;;;;;;;;3.80;86.50;;;;;;5062997;28;19916;-66
2022/03/25 03:18:08;;;;;;;;;;;3.60;86.90;;;;;;5062788;28;20123;-67
2022/03/25 03:20:33;;;;;;;;;;;3.50;87.70;;;;;;5062526;28;19916;-65
2022/03/25 03:22:59;;;;;;;;;;;3.50;88.10;;;;;;5062408;28;19909;-65
2022/03/25 03:25:27;;;;;;;;;;;3.50;88.40;;;;;;5062676;28;19975;-65
2022/03/25 03:27:54;;;;;;;;;;;3.50;88.70;;;;;;5062597;28;20200;-65
2022/03/25 03:30:20;;;;;;;;;;;3.40;88.80;;;;;;5062736;28;19980;-65
2022/03/25 03:32:45;;;;;;;;;;;3.30;89.10;;;;;;5062338;28;19915;-65
2022/03/25 03:35:11;;;;;;;;;;;3.30;89.30;;;;;;5062579;28;19912;-66
2022/03/25 03:37:41;;;;;;;;;;;3.40;89.10;;;;;;5062210;28;19959;-66
2022/03/25 03:40:08;;;;;;;;;;;3.50;88.90;;;;;;5061499;28;19947;-66
2022/03/25 03:42:34;;;;;;;;;;;3.40;88.90;;;;;;5064217;28;19909;-66
2022/03/25 03:44:59;;;;;;;;;;;3.40;89.00;;;;;;5065929;28;19916;-66
2022/03/25 03:47:25;;;;;;;;;;;3.30;89.60;;;;;;5062411;28;20162;-66
2022/03/25 03:49:51;;;;;;;;;;;3.20;89.50;;;;;;5062245;28;20085;-66
2022/03/25 03:52:16;;;;;;;;;;;3.30;89.70;;;;;;5061264;28;19979;-65
2022/03/25 03:54:42;;;;;;;;;;;3.20;89.40;;;;;;5062234;28;19924;-65
2022/03/25 03:57:08;;;;;;;;;;;3.20;89.70;;;;;;5062297;28;19912;-66
2022/03/25 03:59:34;;;;;;;;;;;3.20;89.70;;;;;;5062290;28;19909;-66
2022/03/25 04:02:00;;;;;;;;;;;3.20;89.70;;;;;;5062069;28;19924;-66
2022/03/25 04:04:26;;;;;;;;;;;3.20;89.80;;;;;;5062167;28;19908;-65
2022/03/25 04:06:51;;;;;;;;;;;3.20;89.90;;;;;;5062010;28;20257;-65
2022/03/25 04:09:17;;;;;;;;;;;3.20;89.70;;;;;;5062003;28;19921;-66
2022/03/25 04:11:43;;;;;;;;;;;3.10;90.10;;;;;;5062672;28;19983;-66
2022/03/25 04:14:08;;;;;;;;;;;3.00;90.10;;;;;;5082325;28;19908;-66
2022/03/25 04:16:34;;;;;;;;;;;3.10;90.20;;;;;;5082236;28;19938;-65
2022/03/25 04:19:00;;;;;;;;;;;3.10;90.20;;;;;;5082137;28;19915;-65
2022/03/25 04:21:26;;;;;;;;;;;3.10;90.00;;;;;;5072623;28;20211;-66
2022/03/25 04:23:52;;;;;;;;;;;3.10;90.10;;;;;;5061905;28;19908;-66
2022/03/25 04:26:17;;;;;;;;;;;3.10;90.00;;;;;;5061869;28;19916;-66
2022/03/25 04:28:43;;;;;;;;;;;3.00;90.00;;;;;;5060739;28;19920;-65
2022/03/25 04:31:09;;;;;;;;;;;3.00;90.00;;;;;;5051418;28;19913;-65
2022/03/25 04:33:36;;;;;;;;;;;3.00;90.00;;;;;;5050036;28;19921;-65
2022/03/25 04:36:02;;;;;;;;;;;2.90;90.10;;;;;;5055892;28;19908;-66
2022/03/25 04:38:27;;;;;;;;;;;2.90;90.00;;;;;;5061569;28;20220;-66
2022/03/25 04:40:53;;;;;;;;;;;2.90;90.10;;;;;;5063144;28;20294;-66
2022/03/25 04:43:19;;;;;;;;;;;2.80;90.10;;;;;;5065822;28;19909;-65
2022/03/25 04:45:44;;;;;;;;;;;2.80;90.00;;;;;;5065651;28;19908;-65
2022/03/25 04:48:11;;;;;;;;;;;2.80;90.00;;;;;;5065677;28;19912;-65
2022/03/25 04:50:38;;;;;;;;;;;2.70;90.00;;;;;;5063704;28;19917;-66
2022/03/25 04:53:04;;;;;;;;;;;2.70;90.20;;;;;;5065302;28;19980;-65
2022/03/25 04:55:29;;;;;;;;;;;2.70;90.20;;;;;;5064441;28;19951;-65
2022/03/25 04:57:55;;;;;;;;;;;2.80;90.40;;;;;;5065495;28;19971;-66
2022/03/25 05:00:21;;;;;;;;;;;2.70;90.70;;;;;;5065557;28;19915;-66
2022/03/25 05:02:47;;;;;;;;;;;2.60;90.80;;;;;;5065277;28;19931;-66
2022/03/25 05:05:13;;;;;;;;;;;2.60;91.10;;;;;;5065339;28;19916;-66
2022/03/25 05:07:46;;;;;;;;;;;2.60;91.20;;;;;;5065165;28;20208;-65
2022/03/25 05:10:12;;;;;;;;;;;2.60;91.50;;;;;;5065358;28;19916;-66
2022/03/25 05:12:38;;;;;;;;;;;2.60;91.60;;;;;;5065205;28;19952;-66
2022/03/25 05:15:04;;;;;;;;;;;2.70;91.50;;;;;;5065250;28;19909;-66
2022/03/25 05:17:30;;;;;;;;;;;2.70;91.50;;;;;;5065099;28;19916;-68
2022/03/25 05:19:56;;;;;;;;;;;2.70;91.60;;;;;;5065177;28;19912;-66
2022/03/25 05:22:22;;;;;;;;;;;2.70;91.40;;;;;;5064324;28;20018;-66
2022/03/25 05:24:48;;;;;;;;;;;2.80;91.50;;;;;;5064525;28;19924;-66
2022/03/25 05:27:14;;;;;;;;;;;2.70;91.50;;;;;;5064859;28;19913;-66
2022/03/25 05:29:39;;;;;;;;;;;2.70;91.60;;;;;;5064930;28;19909;-66
2022/03/25 05:32:06;;;;;;;;;;;2.70;91.60;;;;;;5064442;28;20147;-66
2022/03/25 05:34:31;;;;;;;;;;;2.70;91.60;;;;;;5064771;28;19908;-65
2022/03/25 05:36:57;;;;;;;;;;;2.70;91.40;;;;;;5070899;28;20128;-67
2022/03/25 05:39:23;;;;;;;;;;;2.80;91.20;;;;;;5074126;28;19983;-66
2022/03/25 05:41:48;;;;;;;;;;;2.90;90.90;;;;;;5064090;28;19965;-65
2022/03/25 05:44:14;;;;;;;;;;;2.90;90.50;;;;;;5067560;28;19920;-65
2022/03/25 05:46:40;;;;;;;;;;;2.90;90.50;;;;;;5072692;28;19947;-65
2022/03/25 05:49:06;;;;;;;;;;;2.90;90.20;;;;;;5066724;28;19916;-66
2022/03/25 05:51:31;;;;;;;;;;;2.90;90.40;;;;;;5063734;28;19959;-66
2022/03/25 05:53:57;;;;;;;;;;;2.90;90.30;;;;;;5063702;28;19952;-67
2022/03/25 05:56:23;;;;;;;;;;;3.00;90.40;;;;;;5069518;28;19921;-66
2022/03/25 05:58:49;;;;;;;;;;;2.90;90.30;;;;;;5050863;28;19909;-66
2022/03/25 06:01:14;;;;;;;;;;;3.00;90.30;;;;;;5044130;28;19988;-66
2022/03/25 06:03:41;;;;;;;;;;;3.10;90.30;;;;;;5072689;28;20223;-66
2022/03/25 06:06:06;;;;;;;;;;;3.00;90.20;;;;;;5082872;28;19908;-66
2022/03/25 06:08:32;;;;;;;;;;;3.20;90.20;;;;;;5084169;28;19967;-65
2022/03/25 06:10:59;;;;;;;;;;;3.10;90.10;;;;;;5083729;28;19916;-66
2022/03/25 06:13:26;;;;;;;;;;;3.10;90.20;;;;;;5084111;28;19954;-66
2022/03/25 06:15:52;;;;;;;;;;;3.20;90.20;;;;;;5083929;28;19912;-66
2022/03/25 06:18:18;;;;;;;;;;;3.20;90.10;;;;;;5083777;28;19987;-66
2022/03/25 06:20:43;;;;;;;;;;;3.20;90.20;;;;;;5076057;28;19912;-66
2022/03/25 06:23:09;;;;;;;;;;;3.40;90.00;;;;;;5070867;28;20345;-66
2022/03/25 06:25:35;;;;;;;;;;;3.50;89.30;;;;;;5063617;28;19915;-66
2022/03/25 06:28:02;;;;;;;;;;;3.50;89.10;;;;;;5062329;28;19983;-65
2022/03/25 06:30:31;;;;;;;;;;;3.60;89.00;;;;;;5063238;28;20339;-66
2022/03/25 06:32:57;;;;;;;;;;;3.60;89.00;;;;;;5073537;28;20204;-66
2022/03/25 06:35:22;;;;;;;;;;;3.70;89.00;;;;;;5070599;28;19928;-66
2022/03/25 06:37:48;;;;;;;;;;;3.70;89.00;;;;;;5062918;28;19936;-66
2022/03/25 06:40:14;;;;;;;;;;;3.80;88.70;;;;;;5061876;28;19951;-66
2022/03/25 06:42:40;;;;;;;;;;;4.00;88.20;;;;;;5063101;28;19909;-64
2022/03/25 06:45:08;;;;;;;;;;;4.00;87.50;;;;;;5064497;28;19915;-64
2022/03/25 06:47:34;;;;;;;;;;;4.10;87.30;;;;;;5062820;28;19924;-64
2022/03/25 06:50:00;;;;;;;;;;;4.10;87.70;;;;;;5061934;28;19921;-64
2022/03/25 06:52:26;;;;;;;;;;;4.20;87.30;;;;;;5062714;28;20257;-65
2022/03/25 06:54:52;;;;;;;;;;;4.30;86.80;;;;;;5063293;28;19947;-65
2022/03/25 06:57:18;;;;;;;;;;;4.40;85.90;;;;;;5063193;28;19962;-64
2022/03/25 06:59:44;;;;;;;;;;;4.40;86.00;;;;;;5063040;28;19908;-64
2022/03/25 07:02:11;;;;;;;;;;;4.50;86.20;;;;;;5062647;28;19916;-64
2022/03/25 07:04:37;;;;;;;;;;;4.60;85.70;;;;;;5062845;28;19940;-65
2022/03/25 07:07:04;;;;;;;;;;;4.70;85.60;;;;;;5062398;28;20208;-66
2022/03/25 07:09:30;;;;;;;;;;;4.70;85.20;;;;;;5063018;28;19913;-65
2022/03/25 07:11:57;;;;;;;;;;;4.80;84.30;;;;;;5062489;28;19931;-65
2022/03/25 07:14:22;;;;;;;;;;;4.90;84.20;;;;;;5062707;28;19963;-64
2022/03/25 07:16:48;;;;;;;;;;;5.00;84.10;;;;;;5062713;28;19909;-65
2022/03/25 07:19:14;;;;;;;;;;;5.00;83.90;;;;;;5082682;28;19909;-66
2022/03/25 07:21:39;;;;;;;;;;;5.20;83.80;;;;;;5052007;28;19908;-67
2022/03/25 07:24:05;;;;;;;;;;;5.40;83.40;;;;;;5059902;28;20254;-68
2022/03/25 07:26:31;;;;;;;;;;;5.40;83.40;;;;;;5062755;28;19909;-67
2022/03/25 07:28:57;;;;;;;;;;;5.50;83.20;;;;;;5062049;28;20053;-65
2022/03/25 07:31:28;;;;;;;;;;;5.70;83.50;;;;;;5062219;28;20238;-67
2022/03/25 07:33:55;;;;;;;;;;;5.70;82.90;;;;;;5062667;28;19912;-68
2022/03/25 07:36:20;;;;;;;;;;;5.90;83.00;;;;;;5062041;28;19936;-69
2022/03/25 07:38:46;;;;;;;;;;;6.00;82.60;;;;;;5062393;28;19912;-68
2022/03/25 07:41:12;;;;;;;;;;;6.10;82.60;;;;;;5062025;28;19916;-67
2022/03/25 07:43:39;;;;;;;;;;;6.30;82.00;;;;;;5062435;28;19984;-67
2022/03/25 07:46:04;;;;;;;;;;;6.20;82.30;;;;;;5061510;28;19951;-67
2022/03/25 07:48:30;;;;;;;;;;;6.30;81.80;;;;;;5062354;28;20223;-67
2022/03/25 07:50:56;;;;;;;;;;;6.40;81.90;;;;;;5061021;28;20085;-67
2022/03/25 07:53:21;;;;;;;;;;;6.50;81.90;;;;;;5061456;28;20262;-67
2022/03/25 07:55:50;;;;;;;;;;;6.60;81.30;;;;;;5062220;28;19939;-67
2022/03/25 07:58:19;;;;;;;;;;;6.70;80.70;;;;;;5062202;28;19916;-67
2022/03/25 08:00:46;;;;;;;;;;;6.90;79.90;;;;;;5061948;28;19928;-68
2022/03/25 08:03:13;;;;;;;;;;;7.10;79.00;;;;;;5061209;28;19908;-69
2022/03/25 08:05:39;;;;;;;;;;;7.20;78.50;;;;;;5061714;28;20234;-68
2022/03/25 08:08:05;;;;;;;;;;;7.40;78.30;;;;;;5060706;28;19919;-68
2022/03/25 08:10:31;;;;;;;;;;;7.50;77.00;;;;;;5044344;28;19908;-68
2022/03/25 08:12:58;;;;;;;;;;;7.60;76.40;;;;;;5061633;28;19949;-68
2022/03/25 08:15:24;;;;;;;;;;;7.60;76.00;;;;;;5061657;28;20200;-68
2022/03/25 08:17:54;;;;;;;;;;;7.80;75.40;;;;;;5065918;28;19943;-68
2022/03/25 08:20:21;;;;;;;;;;;7.80;74.90;;;;;;5065319;28;19909;-69
2022/03/25 08:22:47;;;;;;;;;;;8.00;75.00;;;;;;5061446;28;20142;-68
2022/03/25 08:28:00;;;;;;;;;;;8.30;73.10;;;;;;5057002;28;19943;-69
2022/03/25 08:30:30;;;;;;;;;;;8.40;72.70;;;;;;5072280;28;20108;-68
2022/03/25 08:32:57;;;;;;;;;;;8.50;72.40;;;;;;5086012;28;20208;-69
2022/03/25 08:35:24;;;;;;;;;;;8.60;72.10;;;;;;5083034;28;20212;-68
2022/03/25 08:37:50;;;;;;;;;;;8.70;71.70;;;;;;5065381;28;19913;-68
2022/03/25 08:40:16;;;;;;;;;;;8.80;70.80;;;;;;5065537;28;20165;-70
2022/03/25 08:42:42;;;;;;;;;;;8.90;70.70;;;;;;5065159;28;19909;-70
2022/03/25 08:45:08;;;;;;;;;;;9.00;70.70;;;;;;5065547;28;20143;-67
2022/03/25 08:47:33;;;;;;;;;;;9.20;70.30;;;;;;5065504;28;19913;-68
2022/03/25 08:50:00;;;;;;;;;;;9.50;69.60;;;;;;5065416;28;19909;-68
2022/03/25 08:52:25;;;;;;;;;;;9.80;68.30;;;;;;5061111;28;19984;-68
2022/03/25 08:54:52;;;;;;;;;;;10.10;67.00;;;;;;5065200;28;19963;-68
2022/03/25 08:57:18;;;;;;;;;;;10.20;66.50;;;;;;5065325;28;19921;-68
2022/03/25 08:59:43;;;;;;;;;;;10.20;65.00;;;;;;5047859;28;19909;-69
2022/03/25 09:02:09;;;;;;;;;;;10.20;64.80;;;;;;5064926;28;20104;-68
2022/03/25 09:04:35;;;;;;;;;;;10.20;64.90;;;;;;5079415;28;19913;-64
2022/03/25 09:07:00;;;;;;;;;;;10.30;66.30;;;;;;5084659;28;19913;-64
2022/03/25 09:09:26;;;;;;;;;;;10.70;68.70;;;;;;5084921;28;19916;-64
2022/03/25 09:11:52;;;;;;;;;;;10.90;64.70;;;;;;5083505;28;20076;-64
2022/03/25 09:14:17;;;;;;;;;;;11.10;65.40;;;;;;5085064;28;19955;-70
2022/03/25 09:16:44;;;;;;;;;;;11.30;63.60;;;;;;5084839;28;20108;-69
2022/03/25 09:19:09;;;;;;;;;;;11.50;61.00;;;;;;5084934;28;19908;-69
2022/03/25 09:21:35;;;;;;;;;;;11.70;59.60;;;;;;5072401;28;19920;-69
2022/03/25 09:24:01;;;;;;;;;;;11.80;59.00;;;;;;5074058;28;20468;-69
2022/03/25 09:26:27;;;;;;;;;;;11.70;57.60;;;;;;5062172;28;19908;-69
2022/03/25 09:28:52;;;;;;;;;;;11.80;55.70;;;;;;5072609;28;19931;-70
2022/03/25 09:31:18;;;;;;;;;;;11.90;55.10;;;;;;5074004;28;19968;-69
2022/03/25 09:33:44;;;;;;;;;;;12.20;52.80;;;;;;5063484;28;19909;-68
2022/03/25 09:36:10;;;;;;;;;;;12.40;50.60;;;;;;5074291;28;19932;-68
2022/03/25 09:38:35;;;;;;;;;;;12.50;52.50;;;;;;5071502;28;19983;-68
2022/03/25 09:41:06;;;;;;;;;;;12.60;52.90;;;;;;5072721;28;19917;-69
2022/03/25 09:43:31;;;;;;;;;;;12.70;52.50;;;;;;5073405;28;19917;-69
2022/03/25 09:45:57;;;;;;;;;;;12.70;50.90;;;;;;5072180;28;19923;-70
2022/03/25 09:48:23;;;;;;;;;;;12.90;51.80;;;;;;5072787;28;20233;-70
2022/03/25 09:50:48;;;;;;;;;;;13.10;53.20;;;;;;5069786;28;20225;-70
2022/03/25 09:53:14;;;;;;;;;;;13.40;50.90;;;;;;5061984;28;19921;-67
2022/03/25 09:55:44;;;;;;;;;;;13.30;50.90;;;;;;5057542;28;20215;-66
2022/03/25 09:58:11;;;;;;;;;;;13.40;49.90;;;;;;5058155;28;19916;-69
2022/03/25 10:00:37;;;;;;;;;;;13.50;49.80;;;;;;5029718;28;19944;-65
2022/03/25 10:03:03;;;;;;;;;;;13.50;49.70;;;;;;5062925;28;20104;-66
2022/03/25 10:05:28;;;;;;;;;;;13.60;48.90;;;;;;5063513;28;19908;-66
2022/03/25 10:07:57;;;;;;;;;;;13.70;48.40;;;;;;5063286;28;19919;-66
2022/03/25 10:10:27;;;;;;;;;;;13.90;48.70;;;;;;5074972;28;19923;-67
2022/03/25 10:13:04;;;;;;;;;;;14.10;49.80;;;;;;5083037;28;20269;-70
2022/03/25 10:15:32;;;;;;;;;;;14.40;48.60;;;;;;5083764;28;19915;-70
2022/03/25 10:18:17;;;;;;;;;;;14.50;46.90;;;;;;5082323;28;20247;-69
2022/03/25 10:20:43;;;;;;;;;;;14.60;46.60;;;;;;5064671;28;19920;-68
2022/03/25 10:23:19;;;;;;;;;;;14.70;47.00;;;;;;5066324;28;19909;-69
2022/03/25 10:26:00;;;;;;;;;;;15.00;47.40;;;;;;5063755;28;19919;-69
2022/03/25 10:28:30;;;;;;;;;;;15.30;48.00;;;;;;5061793;28;20227;-66
2022/03/25 10:30:57;;;;;;;;;;;15.50;47.10;;;;;;5063159;28;20210;-65
2022/03/25 10:33:34;;;;;;;;;;;15.60;46.50;;;;;;5063234;28;19984;-67
2022/03/25 10:36:10;;;;;;;;;;;15.70;46.60;;;;;;5063568;28;19953;-65
2022/03/25 10:38:57;;;;;;;;;;;16.10;45.60;;;;;;5062390;28;20261;-66
2022/03/25 10:41:24;;;;;;;;;;;16.20;44.20;;;;;;5063114;28;19987;-66
2022/03/25 10:43:52;;;;;;;;;;;16.40;43.80;;;;;;5063340;28;20195;-66
2022/03/25 10:46:38;;;;;;;;;;;16.50;42.60;;;;;;5062758;28;19983;-65
2022/03/25 10:49:06;;;;;;;;;;;16.80;41.50;;;;;;5062661;28;19958;-67
2022/03/25 10:51:36;;;;;;;;;;;16.90;40.60;;;;;;5061576;28;19908;-66
2022/03/25 10:54:09;;;;;;;;;;;17.10;40.30;;;;;;5063162;28;19940;-65
2022/03/25 10:56:56;;;;;;;;;;;17.30;40.60;;;;;;5062123;28;19912;-66
2022/03/25 10:59:26;;;;;;;;;;;17.50;39.80;;;;;;5063060;28;20200;-66
2022/03/25 11:02:12;;;;;;;;;;;17.60;38.20;;;;;;5061796;28;19940;-66
2022/03/25 11:04:40;;;;;;;;;;;17.80;38.10;;;;;;5062760;28;20041;-66
2022/03/25 11:07:06;;;;;;;;;;;18.10;39.30;;;;;;5062850;28;19932;-65
2022/03/25 11:09:31;;;;;;;;;;;18.30;36.50;;;;;;5062008;28;20200;-66
2022/03/25 11:11:58;;;;;;;;;;;18.50;36.30;;;;;;5062717;28;19979;-66
2022/03/25 11:14:24;;;;;;;;;;;18.80;35.70;;;;;;5063212;28;20165;-66
2022/03/25 11:16:56;;;;;;;;;;;19.00;36.60;;;;;;5063009;28;19915;-65
2022/03/25 11:19:22;;;;;;;;;;;19.20;33.70;;;;;;5061996;28;19909;-66
2022/03/25 11:21:49;;;;;;;;;;;19.40;33.10;;;;;;5062531;28;19947;-65
2022/03/25 11:24:48;;;;;;;;;;;19.60;33.00;;;;;;5062683;28;19915;-66
2022/03/25 11:27:19;;;;;;;;;;;19.80;32.30;;;;;;5060975;28;19909;-66
2022/03/25 11:29:46;;;;;;;;;;;20.10;32.00;;;;;;5061700;28;19928;-66
2022/03/25 11:32:13;;;;;;;;;;;20.50;32.40;;;;;;5061393;28;20223;-65
2022/03/25 11:34:46;;;;;;;;;;;20.90;31.40;;;;;;5062459;28;19909;-65
2022/03/25 11:37:15;;;;;;;;;;;21.30;30.50;;;;;;5061918;28;19917;-65
2022/03/25 11:39:41;;;;;;;;;;;21.60;30.60;;;;;;5062630;28;19943;-65
2022/03/25 11:42:07;;;;;;;;;;;21.80;29.80;;;;;;5062388;28;20208;-66
2022/03/25 11:44:33;;;;;;;;;;;21.90;29.30;;;;;;5061318;28;19983;-65
2022/03/25 11:46:59;;;;;;;;;;;22.40;28.90;;;;;;5061050;28;19915;-66
2022/03/25 11:49:32;;;;;;;;;;;22.60;28.70;;;;;;5061173;28;19913;-67
2022/03/25 11:52:27;;;;;;;;;;;23.20;28.50;;;;;;5061295;28;19921;-66
2022/03/25 11:55:00;;;;;;;;;;;24.10;28.10;;;;;;5062374;28;19975;-66
2022/03/25 11:57:31;;;;;;;;;;;26.00;26.80;;;;;;5075302;28;19914;-66
2022/03/25 12:00:02;;;;;;;;;;;27.10;26.20;;;;;;5082324;28;19908;-64
2022/03/25 12:02:32;;;;;;;;;;;28.20;24.60;;;;;;5082049;28;19935;-67
2022/03/25 12:04:59;;;;;;;;;;;29.40;24.00;;;;;;5082376;28;19924;-65
2022/03/25 12:07:25;;;;;;;;;;;30.20;23.40;;;;;;5082072;28;20092;-67
2022/03/25 12:09:50;;;;;;;;;;;30.90;22.90;;;;;;5081187;28;19932;-65
2022/03/25 12:12:16;;;;;;;;;;;31.30;22.50;;;;;;5081806;28;19940;-64
2022/03/25 12:15:05;;;;;;;;;;;32.30;21.90;;;;;;5082058;28;19916;-67
2022/03/25 12:17:31;;;;;;;;;;;32.30;22.20;;;;;;5082033;28;19948;-65
2022/03/25 12:19:56;;;;;;;;;;;32.80;21.60;;;;;;5068850;28;19946;-65
2022/03/25 12:22:22;;;;;;;;;;;33.40;21.70;;;;;;5061162;28;19917;-66
2022/03/25 12:24:59;;;;;;;;;;;34.20;20.60;;;;;;5061750;28;20276;-66
2022/03/25 12:27:24;;;;;;;;;;;35.40;20.50;;;;;;5061498;28;20178;-66
2022/03/25 12:29:52;;;;;;;;;;;35.40;20.50;;;;;;5062101;28;19916;-66
2022/03/25 12:32:19;;;;;;;;;;;35.90;20.40;;;;;;5062123;28;20242;-65
2022/03/25 12:35:01;;;;;;;;;;;36.30;20.10;;;;;;5061893;28;19909;-65
2022/03/25 12:37:37;;;;;;;;;;;36.10;20.30;;;;;;5061403;28;19948;-66
2022/03/25 12:40:13;;;;;;;;;;;36.50;19.80;;;;;;5060851;28;19916;-65
2022/03/25 12:42:39;;;;;;;;;;;37.10;19.90;;;;;;5061486;28;19991;-67
2022/03/25 12:45:05;;;;;;;;;;;36.90;19.30;;;;;;5060961;28;20200;-67
2022/03/25 12:47:35;;;;;;;;;;;36.90;19.60;;;;;;5059689;28;19912;-68
2022/03/25 12:50:02;;;;;;;;;;;37.70;19.70;;;;;;5041940;28;19908;-70
2022/03/25 12:52:28;;;;;;;;;;;37.50;19.30;;;;;;5060529;28;19917;-69
2022/03/25 12:54:53;;;;;;;;;;;38.20;19.20;;;;;;5060935;28;20224;-69
2022/03/25 12:57:32;;;;;;;;;;;38.40;19.40;;;;;;5060348;28;19916;-65
2022/03/25 12:59:58;;;;;;;;;;;37.70;19.50;;;;;;5061363;28;20246;-63
2022/03/25 13:02:40;;;;;;;;;;;38.60;19.20;;;;;;5063039;28;19912;-64
2022/03/25 13:05:16;;;;;;;;;;;38.00;19.20;;;;;;5064850;28;19908;-64
2022/03/25 13:07:49;;;;;;;;;;;37.70;19.50;;;;;;5064868;28;19913;-64
2022/03/25 13:10:15;;;;;;;;;;;37.70;19.50;;;;;;5063885;28;19936;-64
2022/03/25 13:12:42;;;;;;;;;;;37.70;19.20;;;;;;5064879;28;19975;-64
2022/03/25 13:15:10;;;;;;;;;;;38.20;19.20;;;;;;5063614;28;20085;-64
2022/03/25 13:17:40;;;;;;;;;;;38.20;18.80;;;;;;5064935;28;19959;-64
2022/03/25 13:20:13;;;;;;;;;;;37.90;18.80;;;;;;5064693;28;19974;-64
2022/03/25 13:22:40;;;;;;;;;;;38.30;18.60;;;;;;5064669;28;19917;-64
2022/03/25 13:25:06;;;;;;;;;;;38.70;19.20;;;;;;5047261;28;20111;-64
2022/03/25 13:27:32;;;;;;;;;;;39.90;18.90;;;;;;5075910;28;19912;-65
2022/03/25 13:29:57;;;;;;;;;;;39.20;19.20;;;;;;5075895;28;20277;-64
2022/03/25 13:32:31;;;;;;;;;;;38.50;18.60;;;;;;5063898;28;19951;-64
2022/03/25 13:35:18;;;;;;;;;;;39.20;18.70;;;;;;5064396;28;19909;-64
2022/03/25 13:37:43;;;;;;;;;;;39.20;19.20;;;;;;5064386;28;19913;-64
2022/03/25 13:40:45;;;;;;;;;;;38.30;18.90;;;;;;5064733;28;19970;-66
2022/03/25 13:43:12;;;;;;;;;;;38.40;19.00;;;;;;5053994;28;19919;-66
2022/03/25 13:45:41;;;;;;;;;;;38.60;18.70;;;;;;5047308;28;19912;-63
2022/03/25 13:48:14;;;;;;;;;;;37.40;19.20;;;;;;5064324;28;19919;-66
2022/03/25 13:50:51;;;;;;;;;;;37.40;19.10;;;;;;5066422;28;19979;-66
2022/03/25 13:53:30;;;;;;;;;;;37.80;19.00;;;;;;5084069;28;19913;-64
2022/03/25 13:55:56;;;;;;;;;;;37.00;19.40;;;;;;5083437;28;19908;-63
2022/03/25 13:58:21;;;;;;;;;;;36.60;19.30;;;;;;5063368;28;20143;-64
2022/03/25 14:00:52;;;;;;;;;;;36.50;19.20;;;;;;5064194;28;19939;-64
2022/03/25 14:03:18;;;;;;;;;;;36.10;19.30;;;;;;5064257;28;20246;-64
2022/03/25 14:05:44;;;;;;;;;;;36.70;19.20;;;;;;5064119;28;19956;-64
2022/03/25 14:08:12;;;;;;;;;;;37.70;19.20;;;;;;5063952;28;20212;-63
2022/03/25 14:10:54;;;;;;;;;;;36.60;19.30;;;;;;5064228;28;20120;-64
2022/03/25 14:13:19;;;;;;;;;;;36.20;19.00;;;;;;5061930;28;19998;-64
2022/03/25 14:15:45;;;;;;;;;;;36.40;19.10;;;;;;5062893;28;19954;-64
2022/03/25 14:18:20;;;;;;;;;;;36.30;19.00;;;;;;5063738;28;19916;-64
2022/03/25 14:20:47;;;;;;;;;;;36.40;19.50;;;;;;5063524;28;19916;-64
2022/03/25 14:23:16;;;;;;;;;;;36.20;19.60;;;;;;5063523;28;19924;-64
2022/03/25 14:25:42;;;;;;;;;;;36.20;19.20;;;;;;5063716;28;20127;-63
2022/03/25 14:28:10;;;;;;;;;;;36.30;19.20;;;;;;5062191;28;19921;-63
2022/03/25 14:30:39;;;;;;;;;;;37.70;18.90;;;;;;5063099;28;19909;-65
2022/03/25 14:33:05;;;;;;;;;;;37.10;18.90;;;;;;5064230;28;19908;-65